Terminal Aerodrome Forecast
Issued by NWS

Home | Current Version | Previous Version | Text Only | Print | Product List | Glossary On
Versions: 1 2 3 4 5 6 7 8 9 10 11 12 13 14
000
FTAK31 PANC 311437 AAA
TAFADL
TAF AMD
PADL 311437Z 3115/0112 VRB04KT P6SM VCFG SCT001
      TEMPO 3115/3117 2SM BR OVC001
     FM311700 04005KT P6SM SKC=

USA.gov is the U.S. government's official web portal to all federal, state and local government web resources and services.